Time;durP1;ratioP1;P1;durP2;ratioP2;P2;SDS_P1;SDS_P2;PMS_P1;PMS_P2;Temp;Humidity;BMP_temperature;BMP_pressure;BME280_temperature;BME280_humidity;BME280_pressure;Samples;Min_cycle;Max_cycle;Signal;HPM_P1;HPM_P2
2022/10/24 00:00:14;;;;;;;;;;;17.90;99.90;;;;;;5012850;28;19966;-74
2022/10/24 00:02:42;;;;;;;;;;;17.90;99.90;;;;;;5013084;28;20044;-72
2022/10/24 00:05:11;;;;;;;;;;;18.00;99.90;;;;;;5013158;28;19956;-74
2022/10/24 00:07:38;;;;;;;;;;;18.00;99.90;;;;;;5013123;28;19917;-74
2022/10/24 00:10:05;;;;;;;;;;;17.90;99.90;;;;;;5013199;28;19996;-75
2022/10/24 00:12:32;;;;;;;;;;;17.90;99.90;;;;;;5013392;28;19967;-76
2022/10/24 00:14:58;;;;;;;;;;;17.90;99.90;;;;;;5011716;28;19910;-74
2022/10/24 00:17:25;;;;;;;;;;;17.90;99.90;;;;;;5013084;28;19920;-75
2022/10/24 00:19:53;;;;;;;;;;;17.90;99.90;;;;;;5012773;28;19913;-74
2022/10/24 00:22:20;;;;;;;;;;;17.90;99.90;;;;;;5012990;28;19979;-76
2022/10/24 00:24:46;;;;;;;;;;;18.00;99.90;;;;;;5012663;28;20366;-72
2022/10/24 00:27:13;;;;;;;;;;;18.00;99.90;;;;;;5013035;28;20007;-74
2022/10/24 00:29:40;;;;;;;;;;;18.10;99.90;;;;;;5012502;28;20326;-72
2022/10/24 00:32:06;;;;;;;;;;;18.10;99.90;;;;;;5012627;28;20399;-73
2022/10/24 00:34:33;;;;;;;;;;;18.20;99.90;;;;;;5012763;28;20406;-77
2022/10/24 00:37:00;;;;;;;;;;;18.20;99.90;;;;;;5012434;28;20302;-72
2022/10/24 00:39:26;;;;;;;;;;;18.20;99.90;;;;;;5012268;28;19937;-71
2022/10/24 00:41:55;;;;;;;;;;;18.20;99.90;;;;;;5012728;28;20019;-73
2022/10/24 00:44:23;;;;;;;;;;;18.20;99.90;;;;;;5012744;28;19914;-76
2022/10/24 00:47:02;;;;;;;;;;;18.20;99.90;;;;;;5012409;28;19914;-71
2022/10/24 00:49:31;;;;;;;;;;;18.20;99.90;;;;;;5012096;28;19925;-74
2022/10/24 00:52:02;;;;;;;;;;;18.30;99.90;;;;;;5012632;28;19921;-72
2022/10/24 00:54:29;;;;;;;;;;;18.20;99.90;;;;;;5012603;28;19916;-73
2022/10/24 00:57:05;;;;;;;;;;;18.20;99.90;;;;;;5012475;28;20004;-71
2022/10/24 00:59:33;;;;;;;;;;;18.30;99.90;;;;;;5012230;28;19910;-74
2022/10/24 01:01:59;;;;;;;;;;;18.30;99.90;;;;;;5012057;28;20256;-72
2022/10/24 01:04:26;;;;;;;;;;;18.20;99.90;;;;;;5012537;28;20295;-74
2022/10/24 01:06:58;;;;;;;;;;;18.30;99.90;;;;;;5012324;28;20361;-71
2022/10/24 01:09:39;;;;;;;;;;;18.30;99.90;;;;;;5012265;28;19910;-73
2022/10/24 01:12:14;;;;;;;;;;;18.30;99.90;;;;;;5013500;28;19910;-74
2022/10/24 01:14:41;;;;;;;;;;;18.30;99.90;;;;;;5016387;28;20316;-75
2022/10/24 01:17:26;;;;;;;;;;;18.30;99.90;;;;;;5016118;28;19918;-71
2022/10/24 01:19:55;;;;;;;;;;;18.40;99.90;;;;;;5016180;28;19913;-78
2022/10/24 01:22:25;;;;;;;;;;;18.40;99.90;;;;;;5016642;28;19918;-75
2022/10/24 01:25:05;;;;;;;;;;;18.50;99.90;;;;;;5016147;28;19916;-78
2022/10/24 01:27:53;;;;;;;;;;;18.50;99.90;;;;;;5016293;28;19967;-77
2022/10/24 01:30:20;;;;;;;;;;;18.50;99.90;;;;;;5016266;28;19914;-73
2022/10/24 01:32:47;;;;;;;;;;;18.50;99.90;;;;;;5015742;28;19914;-75
2022/10/24 01:35:16;;;;;;;;;;;18.50;99.90;;;;;;5015858;28;19909;-79
2022/10/24 01:37:43;;;;;;;;;;;18.60;99.90;;;;;;5015697;28;19909;-73
2022/10/24 01:40:19;;;;;;;;;;;18.70;99.90;;;;;;5016006;28;19935;-79
2022/10/24 01:42:46;;;;;;;;;;;18.60;99.90;;;;;;5015786;28;19918;-72
2022/10/24 01:45:18;;;;;;;;;;;18.70;99.90;;;;;;5014641;28;19916;-78
2022/10/24 01:47:48;;;;;;;;;;;18.70;99.90;;;;;;5015236;28;19921;-79
2022/10/24 01:50:15;;;;;;;;;;;18.70;99.90;;;;;;5015878;28;20377;-75
2022/10/24 01:52:43;;;;;;;;;;;18.80;99.90;;;;;;5016016;28;19967;-76
2022/10/24 01:55:10;;;;;;;;;;;18.90;99.90;;;;;;5014351;28;20005;-79
2022/10/24 01:57:38;;;;;;;;;;;18.90;99.90;;;;;;5015614;28;20403;-79
2022/10/24 02:00:07;;;;;;;;;;;18.90;99.90;;;;;;5015594;28;19918;-75
2022/10/24 02:02:41;;;;;;;;;;;18.90;99.90;;;;;;5015434;28;19924;-78
2022/10/24 02:05:18;;;;;;;;;;;19.00;99.90;;;;;;5015658;28;19913;-79
2022/10/24 02:07:46;;;;;;;;;;;19.10;99.90;;;;;;5015153;28;19917;-79
2022/10/24 02:10:16;;;;;;;;;;;19.10;99.90;;;;;;5015287;28;20383;-72
2022/10/24 02:12:46;;;;;;;;;;;19.00;99.90;;;;;;5015337;28;19957;-77
2022/10/24 02:15:17;;;;;;;;;;;19.00;99.90;;;;;;5015432;28;20011;-79
2022/10/24 02:17:44;;;;;;;;;;;18.80;99.90;;;;;;5014728;28;19924;-77
2022/10/24 02:20:11;;;;;;;;;;;19.00;99.90;;;;;;5015005;28;19909;-79
2022/10/24 02:22:43;;;;;;;;;;;19.00;99.90;;;;;;5014600;28;20331;-76
2022/10/24 02:25:12;;;;;;;;;;;19.10;99.90;;;;;;5015176;28;19909;-73
2022/10/24 02:27:59;;;;;;;;;;;19.30;99.90;;;;;;5014621;28;19910;-76
2022/10/24 02:30:26;;;;;;;;;;;19.40;99.90;;;;;;5003799;28;20373;-78
2022/10/24 02:32:54;;;;;;;;;;;19.20;99.90;;;;;;5014692;28;19936;-77
2022/10/24 02:35:24;;;;;;;;;;;19.20;99.90;;;;;;5013677;28;19910;-79
2022/10/24 02:37:53;;;;;;;;;;;19.20;99.90;;;;;;5014169;28;19913;-73
2022/10/24 02:40:21;;;;;;;;;;;19.20;99.90;;;;;;5014542;28;19910;-72
2022/10/24 02:42:50;;;;;;;;;;;19.20;99.90;;;;;;5014591;28;20429;-71
2022/10/24 02:45:17;;;;;;;;;;;19.30;99.90;;;;;;5014850;28;20421;-77
2022/10/24 02:47:44;;;;;;;;;;;19.20;99.90;;;;;;5014061;28;20367;-74
2022/10/24 02:50:11;;;;;;;;;;;19.20;99.90;;;;;;5014752;28;19952;-76
2022/10/24 02:52:39;;;;;;;;;;;19.20;99.90;;;;;;5014404;28;20260;-76
2022/10/24 02:55:06;;;;;;;;;;;19.20;99.90;;;;;;5014430;28;19948;-74
2022/10/24 02:57:32;;;;;;;;;;;19.20;99.90;;;;;;5014108;28;19914;-78
2022/10/24 02:59:59;;;;;;;;;;;19.20;99.90;;;;;;5014404;28;19910;-75
2022/10/24 03:02:26;;;;;;;;;;;19.20;99.90;;;;;;5014143;28;19947;-79
2022/10/24 03:04:52;;;;;;;;;;;19.20;99.90;;;;;;5014130;28;19959;-78
2022/10/24 03:07:19;;;;;;;;;;;19.20;99.90;;;;;;5014195;28;20441;-79
2022/10/24 03:09:45;;;;;;;;;;;19.20;99.90;;;;;;5013746;28;19965;-78
2022/10/24 03:12:16;;;;;;;;;;;19.20;99.90;;;;;;5014220;28;19960;-75
2022/10/24 03:14:43;;;;;;;;;;;19.20;99.90;;;;;;5013945;28;20345;-77
2022/10/24 03:17:09;;;;;;;;;;;19.20;99.90;;;;;;5013742;28;19999;-76
2022/10/24 03:19:37;;;;;;;;;;;19.20;99.90;;;;;;5013838;28;19963;-78
2022/10/24 03:22:04;;;;;;;;;;;19.10;99.90;;;;;;5013956;28;20306;-76
2022/10/24 03:24:30;;;;;;;;;;;19.10;99.90;;;;;;5014059;28;19917;-77
2022/10/24 03:26:57;;;;;;;;;;;19.00;99.90;;;;;;5013929;28;19952;-77
2022/10/24 03:29:24;;;;;;;;;;;18.90;99.90;;;;;;5013635;28;19913;-74
2022/10/24 03:31:50;;;;;;;;;;;18.90;99.90;;;;;;5013675;28;19910;-79
2022/10/24 03:34:17;;;;;;;;;;;18.90;99.90;;;;;;5013188;28;20360;-79
2022/10/24 03:36:43;;;;;;;;;;;18.90;99.90;;;;;;5013715;28;20487;-72
2022/10/24 03:39:10;;;;;;;;;;;18.90;99.90;;;;;;5013550;28;20283;-79
2022/10/24 03:41:37;;;;;;;;;;;18.90;99.90;;;;;;5013840;28;19917;-78
2022/10/24 03:44:03;;;;;;;;;;;18.80;99.90;;;;;;5013836;28;19914;-77
2022/10/24 03:46:30;;;;;;;;;;;18.90;99.90;;;;;;5013545;28;19916;-79
2022/10/24 03:48:57;;;;;;;;;;;18.90;99.90;;;;;;5012856;28;19921;-79
2022/10/24 03:51:23;;;;;;;;;;;18.90;99.90;;;;;;5013446;28;19913;-78
2022/10/24 03:53:50;;;;;;;;;;;19.00;99.90;;;;;;5013395;28;19957;-77
2022/10/24 03:56:17;;;;;;;;;;;18.80;99.90;;;;;;5013505;28;20066;-73
2022/10/24 03:58:43;;;;;;;;;;;18.80;99.90;;;;;;5013136;28;20434;-74
2022/10/24 04:01:16;;;;;;;;;;;18.90;99.90;;;;;;5013042;28;19918;-78
2022/10/24 04:03:43;;;;;;;;;;;18.90;99.90;;;;;;5013125;28;20268;-78
2022/10/24 04:06:10;;;;;;;;;;;18.90;99.90;;;;;;5013407;28;19917;-77
2022/10/24 04:08:36;;;;;;;;;;;18.90;99.90;;;;;;5013057;28;19921;-79
2022/10/24 04:11:03;;;;;;;;;;;19.00;99.90;;;;;;5013098;28;19916;-75
2022/10/24 04:13:30;;;;;;;;;;;19.00;99.90;;;;;;5013298;28;19910;-73
2022/10/24 04:15:57;;;;;;;;;;;19.10;99.90;;;;;;5012821;28;20002;-75
2022/10/24 04:18:23;;;;;;;;;;;19.10;99.90;;;;;;5012803;28;19909;-77
2022/10/24 04:20:50;;;;;;;;;;;19.00;99.90;;;;;;5012887;28;19914;-76
2022/10/24 04:23:18;;;;;;;;;;;19.00;99.90;;;;;;5027280;28;20310;-79
2022/10/24 04:25:45;;;;;;;;;;;19.00;99.90;;;;;;5012966;28;19917;-73
2022/10/24 04:28:12;;;;;;;;;;;19.00;99.90;;;;;;5012731;28;19920;-71
2022/10/24 04:30:39;;;;;;;;;;;19.10;99.90;;;;;;5012940;28;19913;-78
2022/10/24 04:33:05;;;;;;;;;;;19.10;99.90;;;;;;5012790;28;19932;-75
2022/10/24 04:35:32;;;;;;;;;;;19.10;99.90;;;;;;5012657;28;19910;-78
2022/10/24 04:37:59;;;;;;;;;;;19.10;99.90;;;;;;5012212;28;19940;-74
2022/10/24 04:40:25;;;;;;;;;;;19.10;99.90;;;;;;5012700;28;20367;-77
2022/10/24 04:42:52;;;;;;;;;;;19.20;99.90;;;;;;5012658;28;20417;-72
2022/10/24 04:45:19;;;;;;;;;;;19.20;99.90;;;;;;5011249;28;19949;-79
2022/10/24 04:47:46;;;;;;;;;;;19.20;99.90;;;;;;5011796;28;19929;-78
2022/10/24 04:50:13;;;;;;;;;;;19.10;99.90;;;;;;5012552;28;20012;-74
2022/10/24 04:52:40;;;;;;;;;;;19.10;99.90;;;;;;5012733;28;19914;-79
2022/10/24 04:55:06;;;;;;;;;;;19.10;99.90;;;;;;5011942;28;20363;-79
2022/10/24 04:57:33;;;;;;;;;;;19.10;99.90;;;;;;5012398;28;20073;-79
2022/10/24 05:00:00;;;;;;;;;;;19.10;99.90;;;;;;5012316;28;19917;-79
2022/10/24 05:02:26;;;;;;;;;;;19.10;99.90;;;;;;5012340;28;20020;-79
2022/10/24 05:04:53;;;;;;;;;;;19.20;99.90;;;;;;5012271;28;20393;-77
2022/10/24 05:07:20;;;;;;;;;;;19.20;99.90;;;;;;5012122;28;19910;-79
2022/10/24 05:09:47;;;;;;;;;;;19.20;99.90;;;;;;5012342;28;19956;-75
2022/10/24 05:12:13;;;;;;;;;;;19.30;99.90;;;;;;5011022;28;19925;-79
2022/10/24 05:14:40;;;;;;;;;;;19.40;99.90;;;;;;5012308;28;19910;-76
2022/10/24 05:17:07;;;;;;;;;;;19.40;99.90;;;;;;5011860;28;19909;-73
2022/10/24 05:19:35;;;;;;;;;;;19.40;99.90;;;;;;5011978;28;19914;-79
2022/10/24 05:22:01;;;;;;;;;;;19.50;99.90;;;;;;5012021;28;20382;-73
2022/10/24 05:24:29;;;;;;;;;;;19.50;99.90;;;;;;5012303;28;20355;-72
2022/10/24 05:26:55;;;;;;;;;;;19.50;99.90;;;;;;5012195;28;19985;-76
2022/10/24 05:29:22;;;;;;;;;;;19.50;99.90;;;;;;5012137;28;19932;-76
2022/10/24 05:31:48;;;;;;;;;;;19.50;99.90;;;;;;5011837;28;19909;-76
2022/10/24 05:34:15;;;;;;;;;;;19.50;99.90;;;;;;5012075;28;19924;-77
2022/10/24 05:36:42;;;;;;;;;;;19.50;99.90;;;;;;5011883;28;19971;-79
2022/10/24 05:39:08;;;;;;;;;;;19.50;99.90;;;;;;5011475;28;19910;-79
2022/10/24 05:41:35;;;;;;;;;;;19.60;99.90;;;;;;5011969;28;19932;-73
2022/10/24 05:44:02;;;;;;;;;;;19.50;99.90;;;;;;5011935;28;19913;-77
2022/10/24 05:46:28;;;;;;;;;;;19.50;99.90;;;;;;5011747;28;19910;-75
2022/10/24 05:48:55;;;;;;;;;;;19.50;99.90;;;;;;5011077;28;19936;-77
2022/10/24 05:51:22;;;;;;;;;;;19.60;99.90;;;;;;5007116;28;20423;-70
2022/10/24 05:53:52;;;;;;;;;;;19.60;99.90;;;;;;5010862;28;19932;-70
2022/10/24 05:56:22;;;;;;;;;;;19.60;99.90;;;;;;5025398;28;20274;-71
2022/10/24 05:58:49;;;;;;;;;;;19.70;99.90;;;;;;5012065;28;19960;-70
2022/10/24 06:01:16;;;;;;;;;;;19.70;99.90;;;;;;5013650;28;19914;-71
2022/10/24 06:03:43;;;;;;;;;;;19.70;99.90;;;;;;5013781;28;19914;-70
2022/10/24 06:06:10;;;;;;;;;;;19.70;99.90;;;;;;5028158;28;19910;-73
2022/10/24 06:08:37;;;;;;;;;;;19.80;99.90;;;;;;5013149;28;19910;-75
2022/10/24 06:11:04;;;;;;;;;;;19.90;99.90;;;;;;5013465;28;19920;-75
2022/10/24 06:13:30;;;;;;;;;;;19.90;99.90;;;;;;5013507;28;20322;-76
2022/10/24 06:15:57;;;;;;;;;;;20.00;99.90;;;;;;5013435;28;19941;-75
2022/10/24 06:18:24;;;;;;;;;;;20.00;99.90;;;;;;5012601;28;20397;-71
2022/10/24 06:20:50;;;;;;;;;;;20.10;99.90;;;;;;5012690;28;20004;-74
2022/10/24 06:23:17;;;;;;;;;;;20.10;99.90;;;;;;5013313;28;19967;-76
2022/10/24 06:25:44;;;;;;;;;;;20.10;99.90;;;;;;5013133;28;19914;-76
2022/10/24 06:28:13;;;;;;;;;;;20.10;99.90;;;;;;5012800;28;19963;-70
2022/10/24 06:30:40;;;;;;;;;;;20.10;99.90;;;;;;5012344;28;19914;-69
2022/10/24 06:33:06;;;;;;;;;;;20.10;99.90;;;;;;5012908;28;19920;-72
2022/10/24 06:35:33;;;;;;;;;;;20.10;99.90;;;;;;5012528;28;19920;-70
2022/10/24 06:38:00;;;;;;;;;;;20.10;99.90;;;;;;5012900;28;19944;-70
2022/10/24 06:40:26;;;;;;;;;;;20.10;99.90;;;;;;5012945;28;19913;-70
2022/10/24 06:42:53;;;;;;;;;;;20.00;99.90;;;;;;5012553;28;19925;-78
2022/10/24 06:45:20;;;;;;;;;;;20.00;99.90;;;;;;5027399;28;20012;-75
2022/10/24 06:47:47;;;;;;;;;;;19.90;99.90;;;;;;5012058;28;20018;-74
2022/10/24 06:50:14;;;;;;;;;;;19.90;99.90;;;;;;5012181;28;19917;-74
2022/10/24 06:52:40;;;;;;;;;;;19.90;99.90;;;;;;5012534;28;19913;-76
2022/10/24 06:55:07;;;;;;;;;;;20.00;99.90;;;;;;5012332;28;20283;-75
2022/10/24 06:57:34;;;;;;;;;;;19.90;99.90;;;;;;5011931;28;19914;-71
2022/10/24 07:00:00;;;;;;;;;;;19.80;99.90;;;;;;5012361;28;19909;-72
2022/10/24 07:02:27;;;;;;;;;;;19.80;99.90;;;;;;5012399;28;19925;-70
2022/10/24 07:04:54;;;;;;;;;;;19.80;99.90;;;;;;5011739;28;19920;-70
2022/10/24 07:07:21;;;;;;;;;;;19.80;99.90;;;;;;5012423;28;19920;-71
2022/10/24 07:09:53;;;;;;;;;;;19.70;99.90;;;;;;5010687;28;19913;-72
2022/10/24 07:12:20;;;;;;;;;;;19.60;99.90;;;;;;5012017;28;19910;-76
2022/10/24 07:14:47;;;;;;;;;;;19.50;99.90;;;;;;5011742;28;19913;-74
2022/10/24 07:17:14;;;;;;;;;;;19.50;99.90;;;;;;5011824;28;20016;-73
2022/10/24 07:19:41;;;;;;;;;;;19.40;99.90;;;;;;5011599;28;19914;-74
2022/10/24 07:22:08;;;;;;;;;;;19.40;99.90;;;;;;5011882;28;19918;-73
2022/10/24 07:24:35;;;;;;;;;;;19.40;99.90;;;;;;5012178;28;19914;-74
2022/10/24 07:27:02;;;;;;;;;;;19.30;99.90;;;;;;5011384;28;19920;-70
2022/10/24 07:29:28;;;;;;;;;;;19.40;99.90;;;;;;5011922;28;19917;-75
2022/10/24 07:31:57;;;;;;;;;;;19.30;99.90;;;;;;5011930;28;19965;-73
2022/10/24 07:34:23;;;;;;;;;;;19.30;99.90;;;;;;5009752;28;19960;-75
2022/10/24 07:36:50;;;;;;;;;;;19.30;99.90;;;;;;5011367;28;19916;-72
2022/10/24 07:39:17;;;;;;;;;;;19.20;99.90;;;;;;5011529;28;20331;-74
2022/10/24 07:41:43;;;;;;;;;;;19.20;99.90;;;;;;5011844;28;19975;-74
2022/10/24 07:44:10;;;;;;;;;;;19.10;99.90;;;;;;5011900;28;19913;-72
2022/10/24 07:46:37;;;;;;;;;;;19.10;99.90;;;;;;5011620;28;19960;-70
2022/10/24 07:49:03;;;;;;;;;;;19.10;99.90;;;;;;5010221;28;20374;-70
2022/10/24 07:51:30;;;;;;;;;;;19.00;99.90;;;;;;5011460;28;20502;-70
2022/10/24 07:53:57;;;;;;;;;;;19.00;99.90;;;;;;5011514;28;20335;-70
2022/10/24 07:56:24;;;;;;;;;;;18.90;99.90;;;;;;5011615;28;20017;-72
2022/10/24 07:58:50;;;;;;;;;;;18.90;99.90;;;;;;5011023;28;19909;-70
2022/10/24 08:01:22;;;;;;;;;;;18.90;99.90;;;;;;5011235;28;19922;-72
2022/10/24 08:03:48;;;;;;;;;;;18.80;99.90;;;;;;5011059;28;19921;-72
2022/10/24 08:06:20;;;;;;;;;;;18.80;99.90;;;;;;5011039;28;19920;-72
2022/10/24 08:08:47;;;;;;;;;;;18.80;99.90;;;;;;5010404;28;20393;-73
2022/10/24 08:11:15;;;;;;;;;;;18.80;99.90;;;;;;5012479;28;19964;-71
2022/10/24 08:13:42;;;;;;;;;;;18.80;99.90;;;;;;5012988;28;19956;-71
2022/10/24 08:16:10;;;;;;;;;;;18.70;99.90;;;;;;5013118;28;19910;-70
2022/10/24 08:18:37;;;;;;;;;;;18.70;99.90;;;;;;5012429;28;19909;-71
2022/10/24 08:21:05;;;;;;;;;;;18.80;99.90;;;;;;5010359;28;20354;-71
2022/10/24 08:23:32;;;;;;;;;;;18.70;99.90;;;;;;5012770;28;19921;-70
2022/10/24 08:25:59;;;;;;;;;;;18.70;99.90;;;;;;5006362;28;19913;-70
2022/10/24 08:28:26;;;;;;;;;;;18.70;99.90;;;;;;5004425;28;20588;-71
2022/10/24 08:30:59;;;;;;;;;;;18.70;99.90;;;;;;5004480;28;19921;-72
2022/10/24 08:33:26;;;;;;;;;;;18.80;99.90;;;;;;5008637;28;19967;-71
2022/10/24 08:35:54;;;;;;;;;;;18.80;99.90;;;;;;5012575;28;19909;-75
2022/10/24 08:38:21;;;;;;;;;;;18.70;99.90;;;;;;5012168;28;19910;-70
2022/10/24 08:40:48;;;;;;;;;;;18.70;99.90;;;;;;5012384;28;19924;-73
2022/10/24 08:43:15;;;;;;;;;;;18.70;99.90;;;;;;5012790;28;19917;-70
2022/10/24 08:45:52;;;;;;;;;;;18.70;99.90;;;;;;5012453;28;19914;-70
2022/10/24 08:48:26;;;;;;;;;;;18.60;99.90;;;;;;5012008;28;19922;-76
2022/10/24 08:50:54;;;;;;;;;;;18.70;99.90;;;;;;5012286;28;20067;-70
2022/10/24 08:53:24;;;;;;;;;;;18.70;99.90;;;;;;5012461;28;19909;-70
2022/10/24 08:55:55;;;;;;;;;;;18.70;99.90;;;;;;5012477;28;19913;-71
2022/10/24 08:58:26;;;;;;;;;;;18.70;99.90;;;;;;5012162;28;19913;-70
2022/10/24 09:00:54;;;;;;;;;;;18.70;99.90;;;;;;5012005;28;19975;-71
2022/10/24 09:03:26;;;;;;;;;;;18.80;99.90;;;;;;5011147;28;19916;-77
2022/10/24 09:05:55;;;;;;;;;;;18.80;99.90;;;;;;5012298;28;19917;-73
2022/10/24 09:08:24;;;;;;;;;;;18.70;99.90;;;;;;5012134;28;19921;-78
2022/10/24 09:10:54;;;;;;;;;;;18.80;99.90;;;;;;5012129;28;19909;-78
2022/10/24 09:13:22;;;;;;;;;;;18.70;99.90;;;;;;5012094;28;20000;-70
2022/10/24 09:15:50;;;;;;;;;;;18.70;99.90;;;;;;5012245;28;20130;-70
2022/10/24 09:18:22;;;;;;;;;;;18.60;99.90;;;;;;5011981;28;20350;-71
2022/10/24 09:20:49;;;;;;;;;;;18.70;99.90;;;;;;5010781;28;19917;-74
2022/10/24 09:23:17;;;;;;;;;;;18.60;99.90;;;;;;5010264;28;19968;-70
2022/10/24 09:25:47;;;;;;;;;;;18.60;99.90;;;;;;5010224;28;19909;-69
2022/10/24 09:28:14;;;;;;;;;;;18.70;99.90;;;;;;5010009;28;20327;-71
2022/10/24 09:30:41;;;;;;;;;;;18.70;99.90;;;;;;5010174;28;20364;-69
2022/10/24 09:33:17;;;;;;;;;;;18.70;99.90;;;;;;5009816;28;20296;-69
2022/10/24 09:35:44;;;;;;;;;;;18.70;99.90;;;;;;5013664;28;19913;-77
2022/10/24 09:38:26;;;;;;;;;;;18.70;99.90;;;;;;5013523;28;19914;-70
2022/10/24 09:40:56;;;;;;;;;;;18.60;99.90;;;;;;5007211;28;19992;-78
2022/10/24 09:43:29;;;;;;;;;;;18.60;99.90;;;;;;5007795;28;20520;-73
2022/10/24 09:46:16;;;;;;;;;;;18.60;99.90;;;;;;5007818;28;19921;-72
2022/10/24 09:48:49;;;;;;;;;;;18.60;99.90;;;;;;4995698;28;19968;-70
2022/10/24 09:51:20;;;;;;;;;;;18.60;99.90;;;;;;5007501;28;19993;-71
2022/10/24 09:53:58;;;;;;;;;;;18.60;99.90;;;;;;5007700;28;19913;-73
2022/10/24 09:56:32;;;;;;;;;;;18.50;99.90;;;;;;5007632;28;20363;-69
2022/10/24 09:59:16;;;;;;;;;;;18.50;99.90;;;;;;5006975;28;20367;-71
2022/10/24 10:01:44;;;;;;;;;;;18.50;99.90;;;;;;5007084;28;19929;-69
2022/10/24 10:04:17;;;;;;;;;;;18.50;99.90;;;;;;5007232;28;20072;-76
2022/10/24 10:06:48;;;;;;;;;;;18.50;99.90;;;;;;5007382;28;20024;-70
2022/10/24 10:09:23;;;;;;;;;;;18.50;99.90;;;;;;5006932;28;20004;-72
2022/10/24 10:11:55;;;;;;;;;;;18.60;99.90;;;;;;5006943;28;19913;-70
2022/10/24 10:14:23;;;;;;;;;;;18.60;99.90;;;;;;5006865;28;19952;-71
2022/10/24 10:17:00;;;;;;;;;;;18.60;99.90;;;;;;5006698;28;19913;-74
2022/10/24 10:19:28;;;;;;;;;;;18.60;99.90;;;;;;5007136;28;19913;-70
2022/10/24 10:21:57;;;;;;;;;;;18.50;99.90;;;;;;5006953;28;19926;-70
2022/10/24 10:24:25;;;;;;;;;;;18.50;99.90;;;;;;5007087;28;19913;-69
2022/10/24 10:26:52;;;;;;;;;;;18.50;99.90;;;;;;5005992;28;19913;-76
2022/10/24 10:29:18;;;;;;;;;;;18.60;99.90;;;;;;5006591;28;19913;-72
2022/10/24 10:31:45;;;;;;;;;;;18.50;99.90;;;;;;5006840;28;19918;-73
2022/10/24 10:34:27;;;;;;;;;;;18.50;99.90;;;;;;5007124;28;19913;-70
2022/10/24 10:37:12;;;;;;;;;;;18.60;99.90;;;;;;5006645;28;20343;-76
2022/10/24 10:39:41;;;;;;;;;;;18.60;99.90;;;;;;5006524;28;19920;-73
2022/10/24 10:42:11;;;;;;;;;;;18.50;99.90;;;;;;5006407;28;19922;-71
2022/10/24 10:44:45;;;;;;;;;;;18.50;99.90;;;;;;5006309;28;20472;-73
2022/10/24 10:47:33;;;;;;;;;;;18.50;99.90;;;;;;5006426;28;20378;-74
2022/10/24 10:50:01;;;;;;;;;;;18.50;99.90;;;;;;5006553;28;20016;-71
2022/10/24 10:52:32;;;;;;;;;;;18.50;99.90;;;;;;5005858;28;19920;-77
2022/10/24 10:55:17;;;;;;;;;;;18.40;99.90;;;;;;5006275;28;20302;-69
2022/10/24 10:57:53;;;;;;;;;;;18.40;99.90;;;;;;5006074;28;19913;-72
2022/10/24 11:00:23;;;;;;;;;;;18.40;99.90;;;;;;5006126;28;20654;-75
2022/10/24 11:02:58;;;;;;;;;;;18.40;99.90;;;;;;5006007;28;19925;-75
2022/10/24 11:05:46;;;;;;;;;;;18.30;99.90;;;;;;5005867;28;19924;-73
2022/10/24 11:08:16;;;;;;;;;;;18.40;99.90;;;;;;5005776;28;19913;-77
2022/10/24 11:10:46;;;;;;;;;;;18.30;99.90;;;;;;5004639;28;20283;-75
2022/10/24 11:13:39;;;;;;;;;;;18.30;99.90;;;;;;5006226;28;19914;-73
2022/10/24 11:16:11;;;;;;;;;;;18.20;99.90;;;;;;5003354;28;19913;-75
2022/10/24 11:18:39;;;;;;;;;;;18.20;99.90;;;;;;5005254;28;19964;-73
2022/10/24 11:21:07;;;;;;;;;;;18.20;99.90;;;;;;5005946;28;20020;-72
2022/10/24 11:23:37;;;;;;;;;;;18.20;99.90;;;;;;5006054;28;19919;-73
2022/10/24 11:26:09;;;;;;;;;;;18.20;99.90;;;;;;5006064;28;20417;-71
2022/10/24 11:28:41;;;;;;;;;;;18.20;99.90;;;;;;5005102;28;19960;-70
2022/10/24 11:31:22;;;;;;;;;;;18.30;99.90;;;;;;5005838;28;19920;-77
2022/10/24 11:34:00;;;;;;;;;;;18.20;99.90;;;;;;5005489;28;19929;-72
2022/10/24 11:36:50;;;;;;;;;;;18.20;99.90;;;;;;5005877;28;19967;-69
2022/10/24 11:39:23;;;;;;;;;;;18.20;99.90;;;;;;4997172;28;20263;-70
2022/10/24 11:42:09;;;;;;;;;;;18.20;99.90;;;;;;5005757;28;19921;-74
2022/10/24 11:44:40;;;;;;;;;;;18.20;99.90;;;;;;5005051;28;19921;-73
2022/10/24 11:47:27;;;;;;;;;;;18.20;99.90;;;;;;5004499;28;19913;-71
2022/10/24 11:50:03;;;;;;;;;;;18.20;99.90;;;;;;4973790;28;19921;-69
2022/10/24 11:52:50;;;;;;;;;;;18.10;99.90;;;;;;5005315;28;19959;-72
2022/10/24 11:55:17;;;;;;;;;;;18.10;99.90;;;;;;5004560;28;20283;-72
2022/10/24 11:57:45;;;;;;;;;;;18.00;99.90;;;;;;5004735;28;19920;-71
2022/10/24 12:00:17;;;;;;;;;;;18.00;99.90;;;;;;5005292;28;20366;-71
2022/10/24 12:02:55;;;;;;;;;;;18.10;99.90;;;;;;5005179;28;19928;-77
2022/10/24 12:05:22;;;;;;;;;;;18.10;99.90;;;;;;5005026;28;19967;-77
2022/10/24 12:08:01;;;;;;;;;;;18.10;99.90;;;;;;5004807;28;20379;-78
2022/10/24 12:10:56;;;;;;;;;;;18.00;99.90;;;;;;5004889;28;20038;-73
2022/10/24 12:13:43;;;;;;;;;;;18.00;99.90;;;;;;5005302;28;19913;-79
2022/10/24 12:16:18;;;;;;;;;;;18.00;99.90;;;;;;5005029;28;19913;-79
2022/10/24 12:18:46;;;;;;;;;;;18.00;99.90;;;;;;5004937;28;19917;-72
2022/10/24 12:21:15;;;;;;;;;;;18.00;99.90;;;;;;5004751;28;19921;-77
2022/10/24 12:23:42;;;;;;;;;;;18.10;99.90;;;;;;5009323;28;20008;-78
2022/10/24 12:26:25;;;;;;;;;;;18.10;99.90;;;;;;5012549;28;19910;-75
2022/10/24 12:29:00;;;;;;;;;;;18.20;99.90;;;;;;5012367;28;20004;-76
2022/10/24 12:31:30;;;;;;;;;;;18.20;99.90;;;;;;5012880;28;20479;-80
2022/10/24 12:34:16;;;;;;;;;;;18.10;99.90;;;;;;5012997;28;19910;-79
2022/10/24 12:37:01;;;;;;;;;;;18.10;99.90;;;;;;5012480;28;20004;-77
2022/10/24 12:39:36;;;;;;;;;;;18.10;99.90;;;;;;5012790;28;20402;-77
2022/10/24 12:42:03;;;;;;;;;;;18.10;99.90;;;;;;5012522;28;19984;-78
2022/10/24 12:44:32;;;;;;;;;;;18.10;99.90;;;;;;5012337;28;19972;-79
2022/10/24 12:47:00;;;;;;;;;;;18.10;99.90;;;;;;5012177;28;19909;-79
2022/10/24 12:49:27;;;;;;;;;;;18.10;99.90;;;;;;5012449;28;19926;-78
2022/10/24 12:51:55;;;;;;;;;;;18.10;99.90;;;;;;5012471;28;19910;-78
2022/10/24 12:54:41;;;;;;;;;;;18.20;99.90;;;;;;5012222;28;19909;-78
2022/10/24 12:57:08;;;;;;;;;;;18.10;99.90;;;;;;5010395;28;20012;-77
2022/10/24 12:59:45;;;;;;;;;;;18.10;99.90;;;;;;5012149;28;20016;-77
2022/10/24 13:02:14;;;;;;;;;;;18.10;99.90;;;;;;5012564;28;20368;-78
2022/10/24 13:04:44;;;;;;;;;;;18.10;99.90;;;;;;5012485;28;19917;-77
2022/10/24 13:07:20;;;;;;;;;;;18.00;99.90;;;;;;5011707;28;19917;-78
2022/10/24 13:10:16;;;;;;;;;;;18.10;99.90;;;;;;5012002;28;19909;-79
2022/10/24 13:12:45;;;;;;;;;;;18.10;99.90;;;;;;4958825;28;20358;-73
2022/10/24 13:15:25;;;;;;;;;;;18.00;99.90;;;;;;5012457;28;19937;-79
2022/10/24 13:17:51;;;;;;;;;;;18.00;99.90;;;;;;5011984;28;20368;-78
2022/10/24 13:20:18;;;;;;;;;;;18.00;99.90;;;;;;5012015;28;19956;-77
2022/10/24 13:22:45;;;;;;;;;;;18.00;99.90;;;;;;5011799;28;19996;-72
2022/10/24 13:25:38;;;;;;;;;;;18.00;99.90;;;;;;5011804;28;19921;-79
2022/10/24 13:28:14;;;;;;;;;;;18.00;99.90;;;;;;5007882;28;19921;-74
2022/10/24 13:30:41;;;;;;;;;;;17.90;99.90;;;;;;5012102;28;19913;-78
2022/10/24 13:33:25;;;;;;;;;;;18.00;99.90;;;;;;5011922;28;19913;-73
2022/10/24 13:35:53;;;;;;;;;;;17.90;99.90;;;;;;5011885;28;19963;-79
2022/10/24 13:38:20;;;;;;;;;;;17.90;99.90;;;;;;5011627;28;19917;-79
2022/10/24 13:40:47;;;;;;;;;;;17.90;99.90;;;;;;5011742;28;19956;-79
2022/10/24 13:43:18;;;;;;;;;;;17.90;99.90;;;;;;5011430;28;19914;-78
2022/10/24 13:45:50;;;;;;;;;;;17.80;99.90;;;;;;5011934;28;19914;-75
2022/10/24 13:48:18;;;;;;;;;;;17.90;99.90;;;;;;5011324;28;19932;-74
2022/10/24 13:50:52;;;;;;;;;;;17.90;99.90;;;;;;5011778;28;19917;-72
2022/10/24 13:53:23;;;;;;;;;;;17.90;99.90;;;;;;5011874;28;19916;-79
2022/10/24 13:55:51;;;;;;;;;;;17.90;99.90;;;;;;5011669;28;19921;-74
2022/10/24 13:58:19;;;;;;;;;;;17.90;99.90;;;;;;5011470;28;19914;-76
2022/10/24 14:01:05;;;;;;;;;;;17.90;99.90;;;;;;5011498;28;20422;-73
2022/10/24 14:03:33;;;;;;;;;;;17.80;99.90;;;;;;5011696;28;19918;-72
2022/10/24 14:06:03;;;;;;;;;;;17.80;99.90;;;;;;5011871;28;19910;-70
2022/10/24 14:08:36;;;;;;;;;;;17.80;99.90;;;;;;5011548;28;20355;-75
2022/10/24 14:11:06;;;;;;;;;;;17.80;99.90;;;;;;5011727;28;20437;-71
2022/10/24 14:13:35;;;;;;;;;;;17.80;99.90;;;;;;5011722;28;19909;-75
2022/10/24 14:16:04;;;;;;;;;;;17.80;99.90;;;;;;5011682;28;20291;-69
2022/10/24 14:18:31;;;;;;;;;;;17.80;99.90;;;;;;5011673;28;20372;-75
2022/10/24 14:21:04;;;;;;;;;;;17.80;99.90;;;;;;5015175;28;19918;-73
2022/10/24 14:23:35;;;;;;;;;;;17.80;99.90;;;;;;5015343;28;19921;-74
2022/10/24 14:26:13;;;;;;;;;;;17.80;99.90;;;;;;5013908;28;20326;-75
2022/10/24 14:28:45;;;;;;;;;;;17.80;99.90;;;;;;5014874;28;19996;-69
2022/10/24 14:31:30;;;;;;;;;;;17.70;99.90;;;;;;5014994;28;20008;-70